Time;durP1;ratioP1;P1;durP2;ratioP2;P2;SDS_P1;SDS_P2;PMS_P1;PMS_P2;Temp;Humidity;BMP_temperature;BMP_pressure;BME280_temperature;BME280_humidity;BME280_pressure;Samples;Min_cycle;Max_cycle;Signal;HPM_P1;HPM_P2
2020/12/18 00:01:28;;;;;;;44.70;17.80;;;3.00;99.90;;;;;;4735733;30;20052;-79
2020/12/18 00:03:56;;;;;;;30.80;15.80;;;3.00;99.90;;;;;;4735360;30;20051;-79
2020/12/18 00:06:34;;;;;;;33.30;16.40;;;3.00;99.90;;;;;;4721519;30;20055;-79
2020/12/18 00:09:06;;;;;;;34.47;15.90;;;3.00;99.90;;;;;;4735476;30;20052;-79
2020/12/18 00:11:38;;;;;;;26.77;14.55;;;3.00;99.90;;;;;;4735316;30;20068;-79
2020/12/18 00:14:05;;;;;;;30.40;16.00;;;3.00;99.90;;;;;;4720372;30;20058;-79
2020/12/18 00:16:37;;;;;;;32.90;16.52;;;3.10;99.90;;;;;;4734840;30;20048;-79
2020/12/18 00:19:09;;;;;;;33.08;16.40;;;3.10;99.90;;;;;;4735229;30;20251;-79
2020/12/18 00:21:36;;;;;;;30.23;15.65;;;3.10;99.90;;;;;;4735413;30;20052;-79
2020/12/18 00:24:04;;;;;;;24.70;13.40;;;3.10;99.90;;;;;;4735002;30;20059;-79
2020/12/18 00:26:35;;;;;;;22.48;13.90;;;3.10;99.90;;;;;;4737044;30;20417;-79
2020/12/18 00:29:03;;;;;;;27.42;15.07;;;3.10;99.90;;;;;;4736083;30;20559;-79
2020/12/18 00:31:31;;;;;;;27.30;14.07;;;3.00;99.90;;;;;;4735967;30;20531;-78
2020/12/18 00:33:59;;;;;;;25.25;15.40;;;2.90;99.90;;;;;;4735631;30;20056;-79
2020/12/18 00:36:26;;;;;;;25.33;13.95;;;2.90;99.90;;;;;;4724472;30;20053;-79
2020/12/18 00:38:59;;;;;;;24.13;14.35;;;3.00;99.90;;;;;;4739635;30;20505;-79
2020/12/18 00:41:27;;;;;;;23.77;13.90;;;3.00;99.90;;;;;;4739063;30;20058;-79
2020/12/18 00:44:00;;;;;;;24.98;14.25;;;3.00;99.90;;;;;;4745502;30;20052;-80
2020/12/18 00:46:27;;;;;;;30.10;15.93;;;2.90;99.90;;;;;;4755963;30;20474;-79
2020/12/18 00:48:55;;;;;;;26.95;14.23;;;3.00;99.90;;;;;;4755462;30;20525;-79
2020/12/18 00:51:22;;;;;;;30.20;14.63;;;3.00;99.90;;;;;;4741709;30;20056;-79
2020/12/18 00:53:49;;;;;;;25.20;15.18;;;3.00;99.90;;;;;;4755159;30;20054;-79
2020/12/18 00:56:17;;;;;;;23.77;14.45;;;3.00;99.90;;;;;;4755780;30;20075;-79
2020/12/18 00:58:45;;;;;;;24.75;13.90;;;3.00;99.90;;;;;;4740952;30;20534;-79
2020/12/18 01:01:20;;;;;;;26.25;14.45;;;3.20;99.90;;;;;;4742153;30;20052;-79
2020/12/18 01:03:48;;;;;;;25.27;15.27;;;3.20;99.90;;;;;;4741369;30;20064;-79
2020/12/18 01:06:16;;;;;;;26.20;14.73;;;3.30;99.90;;;;;;4755743;30;20125;-79
2020/12/18 01:09:03;;;;;;;27.08;14.75;;;3.30;99.90;;;;;;4743102;30;20048;-79
2020/12/18 01:11:36;;;;;;;;;;;3.40;99.90;;;;;;4742195;30;20121;-79
2020/12/18 01:14:05;;;;;;;23.83;13.20;;;3.40;99.90;;;;;;4755477;30;20389;-78
2020/12/18 01:16:38;;;;;;;24.63;14.48;;;3.40;99.90;;;;;;4741883;30;20058;-78
2020/12/18 01:19:10;;;;;;;26.83;15.27;;;3.40;99.90;;;;;;4755979;30;20058;-79
2020/12/18 01:21:39;;;;;;;23.83;14.23;;;3.40;99.90;;;;;;4740925;30;20139;-79
2020/12/18 01:24:07;;;;;;;25.65;13.05;;;3.40;99.90;;;;;;4740693;30;20043;-79
2020/12/18 01:26:38;;;;;;;24.60;13.48;;;3.40;99.90;;;;;;4741138;30;20059;-80
2020/12/18 01:29:08;;;;;;;22.15;13.35;;;3.40;99.90;;;;;;4748367;30;20044;-79
2020/12/18 01:31:37;;;;;;;23.00;13.75;;;3.40;99.90;;;;;;4737735;30;20076;-79
2020/12/18 01:34:06;;;;;;;19.98;12.68;;;3.40;99.90;;;;;;4737313;30;20052;-78
2020/12/18 01:36:37;;;;;;;20.52;12.13;;;3.40;99.90;;;;;;4723629;30;20059;-79
2020/12/18 01:39:23;;;;;;;23.60;13.50;;;3.40;99.90;;;;;;4724501;30;20048;-79
2020/12/18 01:41:56;;;;;;;23.13;13.85;;;3.30;99.90;;;;;;4737440;30;20050;-78
2020/12/18 01:44:24;;;;;;;21.63;14.20;;;3.30;99.90;;;;;;4737327;30;20536;-79
2020/12/18 01:46:54;;;;;;;22.27;13.10;;;3.20;99.90;;;;;;4736555;30;20078;-79
2020/12/18 01:49:22;;;;;;;21.08;13.52;;;3.20;99.90;;;;;;4722390;30;20509;-79
2020/12/18 01:51:58;;;;;;;20.23;12.60;;;3.20;99.90;;;;;;4723745;30;20131;-80
2020/12/18 01:54:45;;;;;;;21.05;13.30;;;3.20;99.90;;;;;;4734748;30;20087;-79
2020/12/18 01:57:13;;;;;;;22.08;12.48;;;3.10;99.90;;;;;;4722719;30;20049;-79
2020/12/18 01:59:54;;;;;;;22.77;13.90;;;3.10;99.90;;;;;;4736109;30;20597;-79
2020/12/18 02:02:29;;;;;;;23.38;13.45;;;3.10;99.90;;;;;;4736432;30;20048;-79
2020/12/18 02:05:11;;;;;;;22.50;13.13;;;3.10;99.90;;;;;;4723880;30;20098;-79
2020/12/18 02:07:43;;;;;;;23.45;13.57;;;3.10;99.90;;;;;;4736647;30;20044;-79
2020/12/18 02:10:30;;;;;;;23.45;13.02;;;3.00;99.90;;;;;;4739388;30;20044;-79
2020/12/18 02:12:57;;;;;;;24.88;12.70;;;3.10;99.90;;;;;;4736171;30;20075;-79
2020/12/18 02:15:26;;;;;;;23.77;13.27;;;3.00;99.90;;;;;;4733172;30;20106;-78
2020/12/18 02:18:21;;;;;;;24.13;14.15;;;3.00;99.90;;;;;;4739397;30;20052;-78
2020/12/18 02:20:54;;;;;;;20.85;11.82;;;3.00;99.90;;;;;;4736401;30;20122;-79
2020/12/18 02:23:24;;;;;;;23.92;13.77;;;3.00;99.90;;;;;;4722264;30;20139;-78
2020/12/18 02:26:10;;;;;;;27.08;13.40;;;3.00;99.90;;;;;;4722387;30;20063;-79
2020/12/18 02:28:48;;;;;;;24.35;14.15;;;3.00;99.90;;;;;;4735512;30;20509;-79
2020/12/18 02:31:22;;;;;;;21.92;14.55;;;3.00;99.90;;;;;;4722507;30;20570;-79
2020/12/18 02:34:12;;;;;;;21.83;12.38;;;3.00;99.90;;;;;;4739243;30;20059;-79
2020/12/18 02:36:46;;;;;;;;;;;3.10;99.90;;;;;;4736311;30;20143;-78
2020/12/18 02:39:14;;;;;;;20.00;12.02;;;3.10;99.90;;;;;;4735507;30;19926;-79
2020/12/18 02:41:52;;;;;;;19.70;11.80;;;3.10;99.90;;;;;;4736351;30;20118;-78
2020/12/18 02:44:25;;;;;;;22.70;12.60;;;3.10;99.90;;;;;;4729077;30;20055;-78
2020/12/18 02:47:17;;;;;;;21.77;12.30;;;3.10;99.90;;;;;;4739576;30;20056;-79
2020/12/18 02:49:49;;;;;;;20.58;12.55;;;3.10;99.90;;;;;;4735750;30;20052;-79
2020/12/18 02:52:35;;;;;;;20.45;13.18;;;3.10;99.90;;;;;;4723882;30;20052;-79
2020/12/18 02:55:21;;;;;;;20.73;13.02;;;3.00;99.90;;;;;;4738720;30;20150;-79
2020/12/18 02:58:11;;;;;;;21.42;13.07;;;3.10;99.90;;;;;;4735446;30;20060;-80
2020/12/18 03:00:47;;;;;;;24.17;13.75;;;3.10;99.90;;;;;;4722395;30;20583;-79
2020/12/18 03:03:22;;;;;;;22.20;12.88;;;3.10;99.90;;;;;;4735762;30;20126;-79
2020/12/18 03:06:01;;;;;;;20.38;11.77;;;3.10;99.90;;;;;;4735851;30;20063;-79
2020/12/18 03:08:37;;;;;;;19.50;12.50;;;3.20;99.90;;;;;;4722035;30;20444;-79
2020/12/18 03:11:07;;;;;;;19.83;12.18;;;3.20;99.90;;;;;;4735631;30;20114;-79
2020/12/18 03:13:34;;;;;;;18.35;12.48;;;3.20;99.90;;;;;;4721171;30;20059;-79
2020/12/18 03:16:03;;;;;;;19.20;12.90;;;3.20;99.90;;;;;;4735509;30;20052;-79
2020/12/18 03:18:48;;;;;;;22.00;12.77;;;3.20;99.90;;;;;;4737964;30;20198;-79
2020/12/18 03:21:16;;;;;;;23.20;13.23;;;3.20;99.90;;;;;;4735150;30;20048;-79
2020/12/18 03:23:55;;;;;;;19.58;12.20;;;3.30;99.90;;;;;;4737011;30;20128;-79
2020/12/18 03:26:44;;;;;;;20.55;12.57;;;3.30;99.90;;;;;;4731690;30;20056;-79
2020/12/18 03:29:24;;;;;;;22.65;13.25;;;3.30;99.90;;;;;;4722001;30;20416;-78
2020/12/18 03:31:56;;;;;;;22.48;13.35;;;3.30;99.90;;;;;;4721705;30;20048;-79
2020/12/18 03:34:28;;;;;;;23.88;14.32;;;3.30;99.90;;;;;;4735300;30;20409;-78
2020/12/18 03:37:26;;;;;;;21.42;13.88;;;3.30;99.90;;;;;;4737763;30;20056;-79
2020/12/18 03:39:53;;;;;;;22.42;13.75;;;3.30;99.90;;;;;;4720461;30;20517;-80
2020/12/18 03:42:26;;;;;;;22.77;13.57;;;3.30;99.90;;;;;;4735307;30;20060;-79
2020/12/18 03:44:58;;;;;;;17.53;10.60;;;3.30;99.90;;;;;;4721822;30;20583;-79
2020/12/18 03:47:45;;;;;;;20.23;12.38;;;3.30;99.90;;;;;;4738112;30;20277;-79
2020/12/18 04:30:31;;;;;;;18.20;12.00;;;3.40;99.90;;;;;;5743755;24;20752;-82
2020/12/18 07:09:22;;;;;;;28.75;18.42;;;3.40;99.90;;;;;;4791620;30;20503;-82
2020/12/18 07:17:38;;;;;;;29.38;17.98;;;3.50;99.90;;;;;;4688461;30;20101;-82
2020/12/18 07:29:21;;;;;;;22.33;14.27;;;3.50;99.90;;;;;;4777001;29;20174;-83
2020/12/18 07:53:05;;;;;;;30.38;19.58;;;3.50;99.90;;;;;;4774606;30;20055;-82
2020/12/18 08:27:17;;;;;;;29.90;19.15;;;3.80;99.90;;;;;;4720975;30;20145;-81
2020/12/18 08:31:27;;;;;;;22.35;15.07;;;3.80;99.90;;;;;;4712026;30;20060;-82
2020/12/18 08:39:45;;;;;;;;;;;3.80;99.90;;;;;;4663727;30;20105;-82
2020/12/18 08:43:58;;;;;;;141.82;70.00;;;3.80;99.90;;;;;;4694529;30;19967;-83
2020/12/18 08:48:12;;;;;;;428.20;144.85;;;3.80;99.90;;;;;;4704708;30;20360;-82
2020/12/18 09:05:47;;;;;;;34.80;20.55;;;3.80;99.90;;;;;;4689737;30;20097;-83
2020/12/18 09:10:23;;;;;;;40.30;25.52;;;3.90;99.90;;;;;;4654829;30;20055;-83
2020/12/18 09:14:43;;;;;;;36.75;20.60;;;4.10;99.90;;;;;;4671519;30;20098;-83
2020/12/18 09:23:30;;;;;;;42.03;20.15;;;4.20;99.90;;;;;;4631997;31;20075;-82
2020/12/18 09:49:02;;;;;;;27.63;17.30;;;4.60;99.90;;;;;;4626148;31;20051;-83
2020/12/18 09:53:27;;;;;;;28.40;19.55;;;4.60;99.90;;;;;;4536536;31;20080;-82
2020/12/18 09:57:34;;;;;;;27.58;19.00;;;4.60;99.90;;;;;;4551396;31;20103;-82
2020/12/18 10:01:51;;;;;;;30.17;19.90;;;4.60;99.90;;;;;;4544374;31;20045;-82
2020/12/18 10:14:15;;;;;;;34.75;20.88;;;4.60;99.90;;;;;;4554017;31;20732;-83
2020/12/18 10:18:29;;;;;;;29.83;18.25;;;4.70;99.90;;;;;;4597649;31;20074;-82
2020/12/18 10:30:27;;;;;;;26.33;17.42;;;4.90;99.90;;;;;;4601306;31;20079;-82
2020/12/18 10:33:47;;;;;;;36.05;23.52;;;4.90;99.90;;;;;;4650136;30;20089;-80
2020/12/18 10:36:28;;;;;;;26.10;17.67;;;5.00;99.90;;;;;;4633638;30;20062;-79
2020/12/18 10:55:55;;;;;;;27.77;17.90;;;5.00;99.90;;;;;;4761231;30;20027;-82
2020/12/18 10:59:10;;;;;;;28.92;17.48;;;5.10;99.90;;;;;;4656580;30;20058;-79
2020/12/18 11:01:37;;;;;;;31.42;18.52;;;5.10;99.90;;;;;;4633192;30;20050;-80
2020/12/18 11:04:08;;;;;;;34.30;18.48;;;5.10;99.90;;;;;;4647071;30;20059;-78
2020/12/18 11:06:40;;;;;;;29.73;19.55;;;5.10;99.90;;;;;;4646667;30;20055;-78
2020/12/18 11:09:11;;;;;;;33.33;19.33;;;5.10;99.90;;;;;;4645580;30;20051;-79
2020/12/18 11:11:37;;;;;;;34.35;19.67;;;5.10;99.90;;;;;;4646896;30;20512;-79
2020/12/18 11:14:09;;;;;;;35.67;18.15;;;5.10;99.90;;;;;;4660682;30;20090;-79
2020/12/18 11:16:40;;;;;;;39.35;19.92;;;5.10;99.90;;;;;;4647207;30;20059;-79
2020/12/18 11:19:13;;;;;;;32.83;19.38;;;5.10;99.90;;;;;;4645804;30;20600;-79
2020/12/18 11:21:44;;;;;;;30.95;20.15;;;5.10;99.90;;;;;;4646832;30;20060;-79
2020/12/18 11:24:13;;;;;;;28.48;17.38;;;5.10;99.90;;;;;;4701723;30;20087;-79
2020/12/18 11:26:52;;;;;;;28.13;18.35;;;5.00;99.90;;;;;;4716710;30;20052;-79
2020/12/18 11:29:23;;;;;;;25.67;16.52;;;5.10;99.90;;;;;;4709782;30;20048;-78
2020/12/18 11:31:49;;;;;;;31.38;19.15;;;5.10;99.90;;;;;;4715965;30;20399;-78
2020/12/18 11:34:21;;;;;;;24.67;16.58;;;5.10;99.90;;;;;;4717238;30;20056;-79
2020/12/18 11:36:47;;;;;;;26.98;17.88;;;5.10;99.90;;;;;;4716098;30;20091;-79
2020/12/18 11:39:14;;;;;;;24.70;17.38;;;5.20;99.90;;;;;;4714609;30;20103;-79
2020/12/18 11:41:40;;;;;;;29.80;18.48;;;5.20;99.90;;;;;;4715897;30;20052;-79
2020/12/18 11:44:07;;;;;;;28.63;19.77;;;5.30;99.90;;;;;;4716373;30;20119;-79
2020/12/18 11:46:38;;;;;;;25.73;18.08;;;5.20;99.90;;;;;;4716311;30;20066;-78
2020/12/18 11:49:04;;;;;;;33.15;18.88;;;5.20;99.90;;;;;;4713382;30;20056;-79
2020/12/18 11:51:35;;;;;;;29.77;18.73;;;5.30;99.90;;;;;;4713937;30;20461;-79
2020/12/18 11:54:02;;;;;;;30.83;19.35;;;5.30;99.90;;;;;;4715604;30;20520;-79
2020/12/18 11:56:28;;;;;;;28.88;17.98;;;5.40;99.90;;;;;;4715616;30;20434;-79
2020/12/18 11:59:00;;;;;;;27.35;18.25;;;5.40;99.90;;;;;;4713557;30;20544;-79
2020/12/18 12:01:27;;;;;;;27.48;18.52;;;5.50;99.90;;;;;;4715959;30;20114;-79
2020/12/18 12:03:54;;;;;;;28.20;19.77;;;5.50;99.90;;;;;;4715979;30;20052;-79
2020/12/18 12:06:21;;;;;;;28.85;18.60;;;5.60;99.90;;;;;;4715923;30;20082;-79
2020/12/18 16:30:46;;;;;;;14.77;10.52;;;3.90;99.90;;;;;;5703584;24;20876;-80
2020/12/18 16:33:22;;;;;;;16.45;11.75;;;3.80;99.90;;;;;;4726312;30;20072;-81
2020/12/18 16:36:02;;;;;;;16.15;10.98;;;3.80;99.90;;;;;;4706552;30;20057;-81
2020/12/18 16:38:32;;;;;;;14.05;10.70;;;3.80;99.90;;;;;;4724501;30;20045;-79
2020/12/18 16:41:01;;;;;;;12.93;10.55;;;3.80;99.90;;;;;;4732711;30;20097;-80
2020/12/18 16:43:30;;;;;;;14.07;10.20;;;3.70;99.90;;;;;;4737897;30;20063;-80
2020/12/18 16:45:58;;;;;;;12.57;9.60;;;3.70;99.90;;;;;;4740499;30;20056;-80
2020/12/18 16:48:27;;;;;;;12.27;9.55;;;3.70;99.90;;;;;;4725970;30;20075;-80
2020/12/18 16:50:58;;;;;;;17.48;11.80;;;3.70;99.90;;;;;;4740898;30;20477;-80
2020/12/18 16:53:32;;;;;;;17.30;12.10;;;3.60;99.90;;;;;;4739507;30;20067;-80
2020/12/18 16:56:01;;;;;;;15.80;11.57;;;3.60;99.90;;;;;;4739347;30;20060;-81
2020/12/18 16:58:28;;;;;;;15.27;11.32;;;3.60;99.90;;;;;;4735657;30;20054;-80
2020/12/18 17:00:57;;;;;;;12.50;9.32;;;3.50;99.90;;;;;;4740141;30;20102;-80
2020/12/18 17:03:31;;;;;;;12.75;9.25;;;3.50;99.90;;;;;;4740659;30;20502;-80
2020/12/18 17:05:59;;;;;;;11.18;9.13;;;3.50;99.90;;;;;;4731767;30;20052;-80
2020/12/18 17:08:27;;;;;;;11.23;9.35;;;3.40;99.90;;;;;;4735848;30;20048;-81
2020/12/18 17:10:54;;;;;;;11.13;8.70;;;3.40;99.90;;;;;;4735712;30;20052;-80
2020/12/18 17:13:27;;;;;;;10.10;8.02;;;3.40;99.90;;;;;;4733812;30;20075;-80
2020/12/18 17:15:54;;;;;;;10.45;8.30;;;3.30;99.90;;;;;;4734968;30;20052;-80
2020/12/18 17:18:21;;;;;;;10.98;8.63;;;3.30;99.90;;;;;;4737008;30;20129;-80
2020/12/18 17:20:48;;;;;;;10.65;8.90;;;3.20;99.90;;;;;;4738246;30;20075;-80
2020/12/18 17:23:15;;;;;;;12.40;9.48;;;3.20;99.90;;;;;;4725561;30;20103;-80
2020/12/18 17:25:47;;;;;;;12.30;9.07;;;3.30;99.90;;;;;;4719435;30;20473;-80
2020/12/18 17:28:14;;;;;;;10.73;8.27;;;3.50;99.90;;;;;;4717631;30;20056;-80
2020/12/18 17:30:42;;;;;;;10.40;8.63;;;3.40;99.90;;;;;;4719175;30;20060;-80
2020/12/18 17:33:09;;;;;;;14.98;11.85;;;3.40;99.90;;;;;;4718348;30;20152;-80
2020/12/18 17:35:36;;;;;;;13.38;9.13;;;3.30;99.90;;;;;;4719034;30;20570;-80
2020/12/18 17:38:04;;;;;;;13.27;10.25;;;3.20;99.90;;;;;;4716149;30;20060;-80
2020/12/18 17:40:31;;;;;;;15.98;12.63;;;3.20;99.90;;;;;;4717355;30;20059;-80
2020/12/18 17:42:58;;;;;;;15.02;12.07;;;3.10;99.90;;;;;;4718355;30;20049;-80
2020/12/18 17:45:30;;;;;;;14.93;10.82;;;3.10;99.90;;;;;;4705775;30;20093;-80
2020/12/18 17:47:58;;;;;;;12.80;9.95;;;3.20;99.90;;;;;;4728733;30;20048;-80
2020/12/18 17:50:25;;;;;;;11.43;8.75;;;3.20;99.90;;;;;;4737622;30;20049;-80
2020/12/18 17:52:57;;;;;;;10.30;7.93;;;3.20;99.90;;;;;;4738373;30;20052;-80
2020/12/18 17:55:29;;;;;;;9.52;7.75;;;3.10;99.90;;;;;;4737484;30;20056;-80
2020/12/18 17:58:01;;;;;;;10.75;7.97;;;3.00;99.90;;;;;;4721663;30;20149;-80
2020/12/18 18:00:33;;;;;;;8.90;7.05;;;3.00;99.90;;;;;;4705973;30;20056;-80
2020/12/18 18:03:05;;;;;;;9.60;7.72;;;2.90;99.90;;;;;;4719979;30;20417;-80
2020/12/18 18:05:32;;;;;;;12.13;8.13;;;2.90;99.90;;;;;;4720089;30;20425;-80
2020/12/18 18:07:59;;;;;;;11.43;8.40;;;2.80;99.90;;;;;;4719858;30;20053;-80
2020/12/18 18:10:27;;;;;;;9.85;7.93;;;2.80;99.90;;;;;;4719788;30;20390;-80
2020/12/18 18:12:59;;;;;;;10.48;7.75;;;2.80;99.90;;;;;;4720656;30;20063;-80
2020/12/18 18:15:26;;;;;;;11.43;7.57;;;2.70;99.90;;;;;;4719180;30;20509;-80
2020/12/18 18:17:54;;;;;;;12.15;8.35;;;2.70;99.90;;;;;;4718782;30;20044;-80
2020/12/18 18:20:21;;;;;;;11.02;8.48;;;2.70;99.90;;;;;;4719247;30;20135;-80
2020/12/18 18:22:48;;;;;;;11.15;8.55;;;2.60;99.90;;;;;;4719543;30;20056;-80
2020/12/18 18:25:16;;;;;;;13.60;9.07;;;2.60;99.90;;;;;;4719168;30;20049;-80
2020/12/18 18:27:48;;;;;;;10.48;9.27;;;2.60;99.90;;;;;;4718255;30;20059;-80
2020/12/18 18:30:15;;;;;;;10.95;8.90;;;2.50;99.90;;;;;;4718751;30;20589;-80
2020/12/18 18:32:42;;;;;;;10.30;8.45;;;2.50;99.90;;;;;;4718927;30;20101;-81
2020/12/18 18:35:10;;;;;;;12.63;9.18;;;2.40;99.90;;;;;;4704661;30;20061;-80
2020/12/18 18:37:39;;;;;;;10.57;8.48;;;2.40;99.90;;;;;;4718632;30;20057;-81
2020/12/18 18:40:11;;;;;;;12.55;8.93;;;2.30;99.90;;;;;;4719879;30;20135;-80
2020/12/18 18:42:43;;;;;;;17.67;12.07;;;2.30;99.90;;;;;;4720198;30;20486;-81
2020/12/18 18:45:11;;;;;;;29.20;13.23;;;2.30;99.90;;;;;;4720173;30;20052;-80
2020/12/18 18:47:41;;;;;;;17.17;11.00;;;2.30;99.90;;;;;;4719833;30;20060;-80
2020/12/18 18:50:09;;;;;;;12.45;10.30;;;2.20;99.90;;;;;;4720945;30;20656;-80
2020/12/18 18:52:41;;;;;;;27.65;12.55;;;2.10;99.90;;;;;;4721635;30;20060;-80
2020/12/18 18:55:09;;;;;;;21.23;11.02;;;2.10;99.90;;;;;;4721744;30;20061;-80
2020/12/18 18:57:42;;;;;;;16.75;11.38;;;2.00;99.90;;;;;;4719235;30;20429;-80
2020/12/18 19:00:10;;;;;;;34.10;15.45;;;2.00;99.90;;;;;;4719874;30;20091;-80
2020/12/18 19:02:40;;;;;;;31.27;15.52;;;1.90;99.90;;;;;;4705356;30;20048;-80
2020/12/18 19:05:09;;;;;;;39.92;17.73;;;1.90;99.90;;;;;;4719652;30;20080;-80
2020/12/18 19:07:37;;;;;;;27.45;13.95;;;1.80;99.90;;;;;;4719434;30;20167;-80
2020/12/18 19:10:07;;;;;;;29.48;12.27;;;1.80;99.90;;;;;;4733549;30;20052;-80
2020/12/18 19:12:36;;;;;;;34.05;12.68;;;1.70;99.90;;;;;;4718610;30;20433;-80
2020/12/18 19:15:07;;;;;;;20.52;12.48;;;1.70;99.90;;;;;;4718534;30;20119;-80
2020/12/18 19:17:44;;;;;;;18.30;12.50;;;1.60;99.90;;;;;;4718311;30;20067;-81
2020/12/18 19:20:11;;;;;;;23.77;13.00;;;1.60;99.90;;;;;;4718053;30;20056;-80
2020/12/18 19:22:39;;;;;;;38.08;13.43;;;1.60;99.90;;;;;;4715338;30;20060;-81
2020/12/18 19:25:08;;;;;;;17.00;12.57;;;1.60;99.90;;;;;;4717742;30;20135;-80
2020/12/18 19:27:35;;;;;;;27.98;13.65;;;1.50;99.90;;;;;;4717459;30;20091;-80
2020/12/18 19:30:05;;;;;;;31.77;13.07;;;1.50;99.90;;;;;;4703392;30;20118;-80
2020/12/18 19:32:32;;;;;;;69.15;23.00;;;1.50;99.90;;;;;;4718347;30;20492;-80
2020/12/18 19:35:00;;;;;;;40.75;21.30;;;1.50;99.90;;;;;;4718573;30;20064;-79
2020/12/18 19:37:32;;;;;;;44.13;18.40;;;1.40;99.90;;;;;;4718913;30;20430;-80
2020/12/18 19:40:01;;;;;;;61.08;20.20;;;1.40;99.90;;;;;;4714049;30;20057;-80
2020/12/18 19:42:29;;;;;;;50.47;17.90;;;1.40;99.90;;;;;;4708953;30;20048;-81
2020/12/18 19:44:56;;;;;;;36.92;16.92;;;1.30;99.90;;;;;;4718653;30;20048;-81
2020/12/18 19:47:24;;;;;;;43.35;15.85;;;1.30;99.90;;;;;;4717926;30;20060;-81
2020/12/18 19:49:54;;;;;;;25.58;16.30;;;1.30;99.90;;;;;;4718563;30;20103;-81
2020/12/18 19:52:22;;;;;;;32.10;17.33;;;1.30;99.90;;;;;;4708940;30;20143;-80
2020/12/18 19:54:52;;;;;;;38.78;16.83;;;1.40;99.90;;;;;;4704199;30;20067;-80
2020/12/18 19:57:22;;;;;;;26.98;15.48;;;1.40;99.90;;;;;;4718108;30;20053;-81
2020/12/18 19:59:51;;;;;;;25.38;15.57;;;1.30;99.90;;;;;;4718325;30;20060;-81
2020/12/18 20:02:23;;;;;;;33.60;15.05;;;1.40;99.90;;;;;;4718542;30;20063;-81
2020/12/18 20:04:51;;;;;;;31.63;18.05;;;1.30;99.90;;;;;;4721938;30;20053;-81
2020/12/18 20:07:19;;;;;;;25.58;16.25;;;1.30;99.90;;;;;;4718587;30;20061;-81
2020/12/18 20:09:47;;;;;;;26.13;14.32;;;1.20;99.90;;;;;;4723549;30;20052;-80
2020/12/18 20:12:15;;;;;;;23.05;12.50;;;1.20;99.90;;;;;;4717633;30;20059;-81
2020/12/18 20:14:42;;;;;;;35.05;14.32;;;1.20;99.90;;;;;;4718357;30;20056;-81
2020/12/18 20:17:10;;;;;;;65.57;13.68;;;1.20;99.90;;;;;;4718801;30;20045;-81
2020/12/18 20:19:39;;;;;;;24.85;12.35;;;1.20;99.90;;;;;;4717742;30;20060;-80
2020/12/18 20:22:06;;;;;;;24.48;12.55;;;1.20;99.90;;;;;;4716109;30;20060;-81
2020/12/18 20:24:34;;;;;;;19.08;13.32;;;1.20;99.90;;;;;;4731560;30;20048;-81
2020/12/18 20:27:04;;;;;;;26.25;11.68;;;1.20;99.90;;;;;;4705901;30;20059;-81
2020/12/18 20:29:34;;;;;;;16.65;11.75;;;1.20;99.90;;;;;;4718642;30;20131;-81
2020/12/18 20:32:02;;;;;;;19.70;11.00;;;1.20;99.90;;;;;;4722493;30;20472;-81
2020/12/18 20:34:30;;;;;;;12.38;10.55;;;1.20;99.90;;;;;;4718221;30;20064;-81
2020/12/18 20:36:58;;;;;;;12.70;10.88;;;1.20;99.90;;;;;;4719041;30;20140;-81
2020/12/18 20:39:26;;;;;;;14.52;10.63;;;1.20;99.90;;;;;;4718056;30;20075;-81
2020/12/18 20:41:58;;;;;;;12.13;10.32;;;1.20;99.90;;;;;;4732870;30;20111;-81
2020/12/18 20:44:28;;;;;;;12.50;9.75;;;1.20;99.90;;;;;;4719042;30;20045;-81
2020/12/18 20:46:56;;;;;;;12.73;10.35;;;1.20;99.90;;;;;;4733215;30;20089;-81
2020/12/18 20:49:30;;;;;;;10.55;9.05;;;1.10;99.90;;;;;;4705234;30;20132;-81
2020/12/18 20:51:57;;;;;;;12.80;10.07;;;1.20;99.90;;;;;;4720869;30;20147;-81
2020/12/18 20:54:27;;;;;;;14.23;10.07;;;1.20;99.90;;;;;;4722885;30;20052;-81
2020/12/18 20:56:57;;;;;;;14.07;10.18;;;1.20;99.90;;;;;;4722340;30;20108;-81
2020/12/18 20:59:25;;;;;;;15.38;11.10;;;1.20;99.90;;;;;;4723248;30;20064;-82
2020/12/18 21:01:53;;;;;;;14.23;10.57;;;1.20;99.90;;;;;;4724751;30;20052;-80
2020/12/18 21:04:27;;;;;;;15.73;11.15;;;1.20;99.90;;;;;;4728947;30;20053;-81
2020/12/18 21:06:57;;;;;;;11.60;9.48;;;1.20;99.90;;;;;;4727846;30;20059;-82
2020/12/18 21:10:25;;;;;;;16.60;11.95;;;1.20;99.90;;;;;;4729584;30;20053;-82
2020/12/18 21:13:28;;;;;;;22.83;13.05;;;1.10;99.90;;;;;;4730108;30;20057;-82
2020/12/18 21:16:19;;;;;;;28.75;13.52;;;1.00;99.90;;;;;;4742781;30;20068;-82
2020/12/18 21:19:08;;;;;;;72.13;15.82;;;0.90;99.90;;;;;;4728515;30;20052;-82
2020/12/18 21:21:41;;;;;;;111.72;17.60;;;0.70;99.90;;;;;;4727018;30;20052;-81
2020/12/18 21:24:08;;;;;;;105.95;19.95;;;0.60;99.90;;;;;;4726570;30;20399;-82
2020/12/18 21:26:35;;;;;;;40.55;16.88;;;0.50;99.90;;;;;;4726232;30;20049;-81
2020/12/18 21:29:03;;;;;;;111.43;19.05;;;0.50;99.90;;;;;;4727220;30;20075;-82
2020/12/18 21:31:34;;;;;;;25.20;15.00;;;0.40;99.90;;;;;;4724634;30;20062;-82
2020/12/18 21:34:03;;;;;;;72.63;17.17;;;0.40;99.90;;;;;;4724148;30;20561;-82
2020/12/18 21:36:30;;;;;;;78.13;17.95;;;0.30;99.90;;;;;;4723503;30;20095;-81
2020/12/18 21:39:04;;;;;;;94.03;18.17;;;0.30;99.90;;;;;;4723593;30;20517;-82
2020/12/18 21:41:55;;;;;;;25.52;15.82;;;0.20;99.90;;;;;;4726978;30;20049;-82
2020/12/18 21:44:33;;;;;;;52.65;18.77;;;0.30;99.90;;;;;;4725681;30;20071;-82
2020/12/18 21:47:01;;;;;;;104.68;19.88;;;0.30;99.90;;;;;;4719896;30;20487;-78
2020/12/18 21:49:27;;;;;;;139.60;21.17;;;0.30;99.90;;;;;;4720846;30;20475;-79
2020/12/18 21:51:54;;;;;;;127.63;21.05;;;0.40;99.90;;;;;;4720638;30;20079;-79
2020/12/18 21:54:23;;;;;;;34.50;17.25;;;0.30;99.90;;;;;;4720335;30;20141;-78
2020/12/18 21:56:55;;;;;;;80.45;16.73;;;0.30;99.90;;;;;;4720426;30;20056;-79
2020/12/18 21:59:26;;;;;;;63.42;16.52;;;0.30;99.90;;;;;;4720553;30;20410;-78
2020/12/18 22:01:57;;;;;;;79.97;15.57;;;0.40;99.90;;;;;;4720466;30;20067;-80
2020/12/18 22:04:28;;;;;;;70.95;15.38;;;0.40;99.90;;;;;;4720314;30;20053;-78
2020/12/18 22:06:55;;;;;;;45.03;14.93;;;0.50;99.90;;;;;;4720455;30;20053;-78
2020/12/18 22:09:22;;;;;;;119.75;17.27;;;0.50;99.90;;;;;;4718204;30;20049;-78
2020/12/18 22:11:53;;;;;;;21.58;12.82;;;0.50;99.90;;;;;;4719704;30;20052;-78
2020/12/18 22:14:25;;;;;;;41.15;14.43;;;0.50;99.90;;;;;;4720245;30;20052;-78
2020/12/18 22:16:56;;;;;;;63.50;13.82;;;0.50;99.90;;;;;;4706103;30;20514;-78
2020/12/18 22:19:28;;;;;;;53.30;13.88;;;0.50;99.90;;;;;;4734084;30;20044;-79
2020/12/18 22:21:54;;;;;;;30.13;12.10;;;0.40;99.90;;;;;;4719739;30;20425;-78
2020/12/18 22:24:22;;;;;;;46.92;12.75;;;0.30;99.90;;;;;;4718901;30;20136;-78
2020/12/18 22:26:49;;;;;;;37.95;12.63;;;0.30;99.90;;;;;;4719574;30;20076;-78
2020/12/18 22:29:21;;;;;;;63.90;13.50;;;0.30;99.90;;;;;;4719394;30;20608;-79
2020/12/18 22:31:52;;;;;;;47.28;13.18;;;0.20;99.90;;;;;;4705923;30;20078;-78
2020/12/18 22:34:24;;;;;;;20.20;12.43;;;0.20;99.90;;;;;;4720760;30;20048;-78
2020/12/18 22:36:56;;;;;;;34.92;12.30;;;0.10;99.90;;;;;;4719862;30;20053;-78
2020/12/18 22:39:23;;;;;;;38.00;13.77;;;0.10;99.90;;;;;;4719175;30;20481;-78
2020/12/18 22:41:53;;;;;;;19.60;12.80;;;0.10;99.90;;;;;;4719572;30;20052;-78
2020/12/18 22:44:20;;;;;;;31.48;14.02;;;0.10;99.90;;;;;;4705168;30;20076;-79
2020/12/18 22:46:47;;;;;;;19.95;13.15;;;0.10;99.90;;;;;;4719415;30;20048;-78
2020/12/18 22:49:13;;;;;;;45.38;14.38;;;0.10;99.90;;;;;;4718796;30;20052;-79
2020/12/18 22:51:45;;;;;;;22.63;12.68;;;0.10;99.90;;;;;;4720469;30;20413;-78
2020/12/18 22:54:17;;;;;;;19.02;13.63;;;0.10;99.90;;;;;;4719913;30;20053;-78
2020/12/18 22:56:44;;;;;;;28.10;14.02;;;0.10;99.90;;;;;;4719443;30;20060;-79
2020/12/18 22:59:11;;;;;;;47.13;20.55;;;0.20;99.90;;;;;;4718987;30;20152;-78
2020/12/18 23:01:49;;;;;;;53.05;17.77;;;0.10;99.90;;;;;;4733601;30;20048;-78
2020/12/18 23:04:17;;;;;;;42.47;15.63;;;0.10;99.90;;;;;;4733372;30;20057;-78
2020/12/18 23:06:44;;;;;;;34.35;13.63;;;0.10;99.90;;;;;;4719130;30;20528;-78
2020/12/18 23:09:12;;;;;;;36.95;14.57;;;0.10;99.90;;;;;;4704395;30;20056;-79
2020/12/18 23:11:38;;;;;;;64.82;15.88;;;0.10;99.90;;;;;;4719309;30;20060;-78
2020/12/18 23:14:10;;;;;;;31.23;15.15;;;0.10;99.90;;;;;;4719506;30;20084;-79
2020/12/18 23:16:42;;;;;;;50.40;15.50;;;0.10;99.90;;;;;;4719317;30;20212;-78
2020/12/18 23:19:09;;;;;;;46.85;15.30;;;0.00;99.90;;;;;;4718748;30;20117;-78
2020/12/18 23:21:39;;;;;;;64.25;15.13;;;0.10;99.90;;;;;;4734854;30;20045;-78
2020/12/18 23:24:08;;;;;;;33.60;13.98;;;0.00;99.90;;;;;;4718507;30;20044;-78
2020/12/18 23:26:35;;;;;;;69.88;16.70;;;0.10;99.90;;;;;;4734327;30;20048;-79
2020/12/18 23:29:07;;;;;;;24.50;12.80;;;0.10;99.90;;;;;;4718751;30;20219;-78